Time;durP1;ratioP1;P1;durP2;ratioP2;P2;SDS_P1;SDS_P2;PMS_P1;PMS_P2;Temp;Humidity;BMP_temperature;BMP_pressure;BME280_temperature;BME280_humidity;BME280_pressure;Samples;Min_cycle;Max_cycle;Signal;HPM_P1;HPM_P2
2022/07/02 00:02:19;;;;;;;;;;;;;;;19.54;85.27;98417.94;1688922;85;20527;-89
2022/07/02 00:04:49;;;;;;;;;;;;;;;19.56;84.86;98433.53;1690259;85;20176;-88
2022/07/02 00:07:15;;;;;;;;;;;;;;;19.52;86.93;98438.89;1689491;85;21241;-89
2022/07/02 00:09:41;;;;;;;;;;;;;;;19.48;88.78;98442.03;1689542;85;20340;-84
2022/07/02 00:12:07;;;;;;;;;;;;;;;19.49;87.11;98440.93;1689618;84;20173;-84
2022/07/02 00:14:33;;;;;;;;;;;;;;;19.51;86.27;98446.09;1680561;84;20171;-84
2022/07/02 00:16:58;;;;;;;;;;;;;;;19.54;85.85;98446.23;1689137;83;20156;-89
2022/07/02 00:19:24;;;;;;;;;;;;;;;19.48;87.90;98435.17;1689622;85;21105;-84
2022/07/02 00:21:50;;;;;;;;;;;;;;;19.53;86.03;98434.20;1689704;83;20272;-89
2022/07/02 00:24:16;;;;;;;;;;;;;;;19.52;87.99;98438.09;1689694;85;20279;-89
2022/07/02 00:26:45;;;;;;;;;;;;;;;19.51;88.89;98444.72;1690032;83;20163;-90
2022/07/02 00:29:20;;;;;;;;;;;;;;;19.53;86.44;98445.19;1689784;85;20193;-89
2022/07/02 00:31:46;;;;;;;;;;;;;;;19.46;85.33;98451.19;1686621;85;21951;-89
2022/07/02 00:34:12;;;;;;;;;;;;;;;19.41;86.06;98449.44;1688415;85;20544;-84
2022/07/02 00:36:38;;;;;;;;;;;;;;;19.34;88.57;98430.45;1687952;83;20504;-84
2022/07/02 00:39:03;;;;;;;;;;;;;;;19.32;85.79;98410.75;1689636;85;20176;-84
2022/07/02 00:41:29;;;;;;;;;;;;;;;19.33;86.53;98406.87;1689588;84;20249;-84
2022/07/02 00:43:55;;;;;;;;;;;;;;;19.30;87.51;98400.06;1689578;83;21077;-89
2022/07/02 00:46:21;;;;;;;;;;;;;;;19.29;87.09;98389.41;1665499;85;20215;-83
2022/07/02 00:48:47;;;;;;;;;;;;;;;19.30;86.21;98379.46;1689320;83;20185;-89
2022/07/02 00:51:12;;;;;;;;;;;;;;;19.33;86.24;98365.66;1689498;85;20160;-83
2022/07/02 00:53:38;;;;;;;;;;;;;;;19.27;86.74;98359.52;1689758;83;20164;-89
2022/07/02 00:56:04;;;;;;;;;;;;;;;19.24;87.04;98356.64;1689843;85;22224;-84
2022/07/02 00:58:31;;;;;;;;;;;;;;;19.25;86.51;98354.13;1689540;84;20419;-89
2022/07/02 01:00:57;;;;;;;;;;;;;;;19.23;86.36;98358.58;1688594;85;20205;-84
2022/07/02 01:03:23;;;;;;;;;;;;;;;19.21;86.20;98357.28;1689596;83;20450;-84
2022/07/02 01:05:49;;;;;;;;;;;;;;;19.16;86.29;98361.02;1689722;84;20176;-84
2022/07/02 01:11:00;;;;;;;;;;;;;;;19.16;86.70;98353.59;1689865;84;20141;-84
2022/07/02 01:13:26;;;;;;;;;;;;;;;19.18;86.63;98369.73;1689585;83;20271;-83
2022/07/02 01:15:51;;;;;;;;;;;;;;;19.21;86.06;98376.50;1687601;84;20225;-84
2022/07/02 01:18:17;;;;;;;;;;;;;;;19.16;86.17;98374.76;1689094;85;20253;-88
2022/07/02 01:20:44;;;;;;;;;;;;;;;19.15;86.63;98376.70;1689382;84;21124;-84
2022/07/02 01:23:10;;;;;;;;;;;;;;;19.13;86.56;98372.64;1689695;83;20262;-85
2022/07/02 01:25:36;;;;;;;;;;;;;;;19.15;86.54;98375.89;1689593;84;20292;-89
2022/07/02 01:28:02;;;;;;;;;;;;;;;19.14;86.69;98370.13;1689624;85;20565;-84
2022/07/02 01:30:28;;;;;;;;;;;;;;;19.12;86.78;98368.28;1686598;84;20257;-84
2022/07/02 01:32:54;;;;;;;;;;;;;;;19.09;86.74;98375.25;1689816;84;21771;-88
2022/07/02 01:35:20;;;;;;;;;;;;;;;19.13;86.42;98379.52;1689834;85;20306;-88
2022/07/02 01:37:46;;;;;;;;;;;;;;;19.14;86.18;98373.72;1672065;84;20199;-83
2022/07/02 01:40:12;;;;;;;;;;;;;;;19.21;86.40;98374.56;1672468;85;20672;-84
2022/07/02 01:42:37;;;;;;;;;;;;;;;19.16;86.28;98385.17;1689698;83;20839;-84
2022/07/02 01:45:04;;;;;;;;;;;;;;;19.18;86.69;98381.29;1681599;85;21090;-89
2022/07/02 01:47:30;;;;;;;;;;;;;;;19.19;86.78;98377.41;1673128;85;20184;-89
2022/07/02 01:49:55;;;;;;;;;;;;;;;19.21;86.46;98379.25;1686354;84;20187;-84
2022/07/02 01:52:21;;;;;;;;;;;;;;;19.18;86.47;98376.60;1689716;83;20437;-89
2022/07/02 01:54:47;;;;;;;;;;;;;;;19.16;86.74;98372.81;1689619;85;20211;-83
2022/07/02 01:57:13;;;;;;;;;;;;;;;19.19;86.68;98379.58;1689988;83;21089;-89
2022/07/02 01:59:39;;;;;;;;;;;;;;;19.24;86.34;98385.48;1689608;85;20219;-89
2022/07/02 02:02:04;;;;;;;;;;;;;;;19.27;85.94;98393.06;1681357;85;20271;-84
2022/07/02 02:04:30;;;;;;;;;;;;;;;19.23;85.85;98383.30;1664068;85;20544;-88
2022/07/02 02:06:56;;;;;;;;;;;;;;;19.23;86.16;98377.81;1686815;83;20249;-89
2022/07/02 02:09:22;;;;;;;;;;;;;;;19.24;85.80;98386.86;1689914;85;20783;-84
2022/07/02 02:11:48;;;;;;;;;;;;;;;19.28;85.56;98392.73;1689856;85;20224;-84
2022/07/02 02:14:13;;;;;;;;;;;;;;;19.30;85.08;98400.06;1689964;83;20181;-87
2022/07/02 02:16:39;;;;;;;;;;;;;;;19.29;85.52;98392.97;1689964;83;20168;-84
2022/07/02 02:19:05;;;;;;;;;;;;;;;19.30;85.13;98385.52;1689959;84;20176;-89
2022/07/02 02:21:31;;;;;;;;;;;;;;;19.31;85.21;98389.34;1689542;84;21129;-83
2022/07/02 02:23:57;;;;;;;;;;;;;;;19.29;87.57;98400.40;1689735;85;20249;-89
2022/07/02 02:26:22;;;;;;;;;;;;;;;19.27;86.59;98406.80;1665139;85;20205;-84
2022/07/02 02:28:48;;;;;;;;;;;;;;;19.24;85.97;98419.25;1688185;83;20157;-89
2022/07/02 02:31:14;;;;;;;;;;;;;;;19.23;86.49;98422.30;1689709;84;20207;-84
2022/07/02 02:33:41;;;;;;;;;;;;;;;19.19;87.42;98421.36;1689606;85;21874;-89
2022/07/02 02:36:06;;;;;;;;;;;;;;;18.98;88.38;98432.22;1689883;84;20196;-84
2022/07/02 02:38:36;;;;;;;;;;;;;;;18.83;88.89;98435.70;1689644;83;20296;-88
2022/07/02 02:41:00;;;;;;;;;;;;;;;18.79;88.17;98442.14;1689640;85;20160;-84
2022/07/02 02:43:26;;;;;;;;;;;;;;;18.76;88.08;98452.41;1689756;84;20174;-89
2022/07/02 02:45:51;;;;;;;;;;;;;;;18.72;88.22;98449.52;1687582;85;21029;-89
2022/07/02 02:48:17;;;;;;;;;;;;;;;18.65;88.20;98452.45;1688821;85;20324;-89
2022/07/02 02:50:43;;;;;;;;;;;;;;;18.55;88.88;98453.02;1690005;84;20213;-86
2022/07/02 02:53:09;;;;;;;;;;;;;;;18.45;89.01;98453.87;1689776;85;20186;-85
2022/07/02 02:55:34;;;;;;;;;;;;;;;18.37;89.29;98459.58;1689447;84;20242;-88
2022/07/02 02:58:00;;;;;;;;;;;;;;;18.34;88.75;98469.84;1655345;85;21115;-88
2022/07/02 03:00:27;;;;;;;;;;;;;;;18.24;89.75;98466.83;1689663;85;20406;-88
2022/07/02 03:02:53;;;;;;;;;;;;;;;18.22;89.47;98468.28;1689837;83;20527;-84
2022/07/02 03:05:19;;;;;;;;;;;;;;;18.24;88.46;98481.11;1689690;85;20263;-84
2022/07/02 03:07:44;;;;;;;;;;;;;;;18.22;88.39;98487.48;1689831;85;20197;-89
2022/07/02 03:10:10;;;;;;;;;;;;;;;18.01;90.90;98492.72;1686250;84;21082;-85
2022/07/02 03:12:36;;;;;;;;;;;;;;;17.98;90.89;98493.36;1689639;83;20255;-89
2022/07/02 03:15:02;;;;;;;;;;;;;;;17.82;91.71;98497.64;1689660;84;20479;-84
2022/07/02 03:17:27;;;;;;;;;;;;;;;17.70;91.96;98497.67;1689900;84;20217;-89
2022/07/02 03:19:53;;;;;;;;;;;;;;;17.68;91.36;98502.61;1689024;84;20170;-86
2022/07/02 03:22:19;;;;;;;;;;;;;;;17.42;93.32;98509.31;1687318;83;21104;-87
2022/07/02 03:24:45;;;;;;;;;;;;;;;17.37;93.60;98515.49;1689611;84;20749;-88
2022/07/02 03:27:10;;;;;;;;;;;;;;;17.26;94.20;98521.79;1688616;85;20245;-84
2022/07/02 03:29:36;;;;;;;;;;;;;;;17.12;95.87;98529.23;1686604;85;20345;-88
2022/07/02 03:32:02;;;;;;;;;;;;;;;17.17;94.61;98532.64;1689998;84;20206;-84
2022/07/02 03:34:28;;;;;;;;;;;;;;;17.20;93.18;98537.52;1689392;84;21183;-88
2022/07/02 03:36:53;;;;;;;;;;;;;;;17.20;94.45;98542.19;1665030;84;20193;-88
2022/07/02 03:39:19;;;;;;;;;;;;;;;17.26;94.16;98544.23;1685389;85;20253;-88
2022/07/02 03:41:45;;;;;;;;;;;;;;;17.22;95.56;98543.25;1689374;84;20170;-88
2022/07/02 03:44:11;;;;;;;;;;;;;;;17.19;96.36;98537.28;1688766;84;20229;-88
2022/07/02 03:46:36;;;;;;;;;;;;;;;17.18;96.30;98545.81;1687384;84;21168;-88
2022/07/02 03:49:02;;;;;;;;;;;;;;;17.17;96.42;98544.16;1686041;85;20246;-88
2022/07/02 03:51:28;;;;;;;;;;;;;;;17.19;94.88;98552.34;1664417;84;20208;-88
2022/07/02 03:53:54;;;;;;;;;;;;;;;17.16;95.33;98545.28;1689660;83;20168;-84
2022/07/02 03:56:19;;;;;;;;;;;;;;;17.17;94.48;98555.92;1665930;85;20156;-84
2022/07/02 03:58:45;;;;;;;;;;;;;;;17.12;96.66;98560.17;1688531;83;21045;-84
2022/07/02 04:01:11;;;;;;;;;;;;;;;17.06;98.04;98556.48;1692094;84;20165;-88
2022/07/02 04:03:36;;;;;;;;;;;;;;;16.94;98.97;98549.38;1690257;84;20276;-88
2022/07/02 04:06:02;;;;;;;;;;;;;;;16.93;98.66;98552.68;1686156;84;20267;-87
2022/07/02 04:08:28;;;;;;;;;;;;;;;16.92;99.04;98555.17;1689472;83;20808;-88
2022/07/02 04:10:54;;;;;;;;;;;;;;;16.90;99.29;98565.03;1689549;85;21092;-84
2022/07/02 04:13:20;;;;;;;;;;;;;;;16.88;98.95;98567.27;1686349;85;20202;-88
2022/07/02 04:15:45;;;;;;;;;;;;;;;16.93;98.34;98568.30;1689497;85;20261;-87
2022/07/02 04:18:11;;;;;;;;;;;;;;;16.88;99.47;98571.94;1689674;85;20225;-83
2022/07/02 04:20:37;;;;;;;;;;;;;;;16.87;99.72;98571.69;1685359;84;20728;-89
2022/07/02 04:23:02;;;;;;;;;;;;;;;16.85;100.00;98572.00;1689702;83;21915;-88
2022/07/02 04:25:28;;;;;;;;;;;;;;;16.90;99.58;98564.22;1689550;85;20757;-83
2022/07/02 04:27:54;;;;;;;;;;;;;;;16.99;98.09;98565.11;1689671;85;20772;-84
2022/07/02 04:30:20;;;;;;;;;;;;;;;17.01;99.03;98561.53;1688087;85;20490;-84
2022/07/02 04:32:46;;;;;;;;;;;;;;;16.96;99.60;98567.11;1688010;83;20737;-84
2022/07/02 04:35:12;;;;;;;;;;;;;;;17.00;99.24;98572.77;1688275;83;21034;-84
2022/07/02 04:37:38;;;;;;;;;;;;;;;17.01;99.00;98569.74;1687709;83;20204;-88
2022/07/02 04:40:04;;;;;;;;;;;;;;;17.02;99.17;98571.36;1689548;85;20219;-89
2022/07/02 04:42:30;;;;;;;;;;;;;;;17.08;97.81;98566.00;1688014;85;20193;-88
2022/07/02 04:44:56;;;;;;;;;;;;;;;17.05;98.96;98568.55;1687150;83;20166;-87
2022/07/02 04:47:21;;;;;;;;;;;;;;;17.09;98.19;98569.02;1689950;85;21093;-89
2022/07/02 04:49:47;;;;;;;;;;;;;;;17.15;97.82;98573.23;1689789;85;20625;-84
2022/07/02 04:52:13;;;;;;;;;;;;;;;17.17;98.24;98575.66;1689935;83;20743;-83
2022/07/02 04:54:39;;;;;;;;;;;;;;;17.12;98.28;98576.59;1689614;85;20668;-83
2022/07/02 04:57:05;;;;;;;;;;;;;;;17.06;98.15;98577.82;1689961;83;20772;-89
2022/07/02 04:59:30;;;;;;;;;;;;;;;17.07;98.47;98580.00;1689685;85;21117;-86
2022/07/02 05:01:56;;;;;;;;;;;;;;;17.06;98.48;98583.30;1689861;84;20214;-88
2022/07/02 05:04:22;;;;;;;;;;;;;;;17.09;98.12;98582.70;1689797;84;20194;-84
2022/07/02 05:06:48;;;;;;;;;;;;;;;17.12;98.69;98584.81;1690000;83;20185;-89
2022/07/02 05:09:14;;;;;;;;;;;;;;;17.16;98.48;98585.80;1689800;85;20533;-89
2022/07/02 05:11:40;;;;;;;;;;;;;;;17.22;98.48;98591.17;1690043;83;22019;-89
2022/07/02 05:14:06;;;;;;;;;;;;;;;17.27;98.12;98589.70;1689791;85;20359;-88
2022/07/02 05:16:31;;;;;;;;;;;;;;;17.18;97.90;98591.80;1689981;85;20298;-88
2022/07/02 05:18:57;;;;;;;;;;;;;;;17.30;96.90;98589.88;1689504;83;20690;-88
2022/07/02 05:21:23;;;;;;;;;;;;;;;17.38;96.11;98597.34;1689663;84;20190;-89
2022/07/02 05:23:48;;;;;;;;;;;;;;;17.32;96.98;98595.84;1689832;85;21102;-84
2022/07/02 05:26:14;;;;;;;;;;;;;;;17.38;95.89;98604.20;1691578;85;20204;-83
2022/07/02 05:28:40;;;;;;;;;;;;;;;17.36;95.92;98604.27;1689997;85;20197;-84
2022/07/02 05:31:06;;;;;;;;;;;;;;;17.28;95.84;98604.44;1690072;84;20227;-84
2022/07/02 05:33:31;;;;;;;;;;;;;;;17.35;95.62;98610.31;1686531;85;20262;-89
2022/07/02 05:35:57;;;;;;;;;;;;;;;17.37;96.04;98607.25;1685880;84;21051;-89
2022/07/02 05:38:23;;;;;;;;;;;;;;;17.38;96.16;98600.66;1689976;85;20174;-84
2022/07/02 05:40:49;;;;;;;;;;;;;;;17.36;95.67;98609.19;1689912;85;20264;-83
2022/07/02 05:43:14;;;;;;;;;;;;;;;17.43;95.25;98609.57;1687135;85;20197;-88
2022/07/02 05:45:40;;;;;;;;;;;;;;;17.47;95.41;98615.23;1688943;85;20296;-89
2022/07/02 05:48:06;;;;;;;;;;;;;;;17.43;94.81;98627.38;1668304;84;21164;-89
2022/07/02 05:50:31;;;;;;;;;;;;;;;17.49;94.49;98626.11;1663099;84;20184;-89
2022/07/02 05:52:57;;;;;;;;;;;;;;;17.48;94.23;98629.17;1659226;85;20223;-84
2022/07/02 05:55:23;;;;;;;;;;;;;;;17.52;93.90;98625.23;1675718;84;20235;-83
2022/07/02 05:57:49;;;;;;;;;;;;;;;17.43;94.33;98632.02;1690980;83;20172;-89
2022/07/02 06:00:15;;;;;;;;;;;;;;;17.35;94.77;98636.89;1690766;85;21089;-84
2022/07/02 06:02:40;;;;;;;;;;;;;;;17.34;94.94;98637.42;1690148;83;20139;-85
2022/07/02 06:07:51;;;;;;;;;;;;;;;17.20;95.00;98637.48;1688029;84;20163;-88
2022/07/02 06:10:20;;;;;;;;;;;;;;;17.28;94.25;98644.72;1686698;84;20185;-84
2022/07/02 06:12:50;;;;;;;;;;;;;;;17.15;94.00;98643.05;1689923;85;21235;-89
2022/07/02 06:15:16;;;;;;;;;;;;;;;17.19;93.91;98647.38;1691529;84;20218;-84
2022/07/02 06:17:42;;;;;;;;;;;;;;;17.21;93.95;98643.77;1676924;84;20445;-84
2022/07/02 06:20:09;;;;;;;;;;;;;;;17.29;93.41;98652.62;1671970;83;20706;-83
2022/07/02 06:22:35;;;;;;;;;;;;;;;17.32;93.33;98665.69;1689910;83;20472;-89
2022/07/02 06:25:01;;;;;;;;;;;;;;;17.33;93.80;98664.56;1689719;84;21156;-89
2022/07/02 06:27:26;;;;;;;;;;;;;;;17.35;93.20;98667.02;1689937;83;20168;-89
2022/07/02 06:29:53;;;;;;;;;;;;;;;17.35;93.42;98677.41;1689103;84;20276;-89
2022/07/02 06:32:19;;;;;;;;;;;;;;;17.35;93.04;98678.78;1687496;85;20203;-85
2022/07/02 06:34:45;;;;;;;;;;;;;;;17.42;92.99;98689.30;1686624;84;20706;-84
2022/07/02 06:37:11;;;;;;;;;;;;;;;17.42;93.16;98696.14;1689849;83;21089;-83
2022/07/02 06:39:36;;;;;;;;;;;;;;;17.46;93.33;98700.72;1689827;83;20200;-84
2022/07/02 06:44:48;;;;;;;;;;;;;;;17.35;93.24;98713.02;1686726;85;20709;-85
2022/07/02 06:47:14;;;;;;;;;;;;;;;17.26;94.01;98714.87;1679175;85;20177;-89
2022/07/02 06:49:40;;;;;;;;;;;;;;;17.17;94.44;98718.85;1664919;83;21101;-84
2022/07/02 06:52:06;;;;;;;;;;;;;;;17.16;94.14;98726.02;1680972;85;20177;-85
2022/07/02 06:54:32;;;;;;;;;;;;;;;17.19;94.22;98728.97;1664105;84;20144;-84
2022/07/02 06:56:58;;;;;;;;;;;;;;;17.16;95.04;98738.33;1688765;84;20257;-89
2022/07/02 06:59:23;;;;;;;;;;;;;;;17.07;95.92;98740.97;1686537;85;20170;-89
2022/07/02 07:01:49;;;;;;;;;;;;;;;17.06;96.11;98745.39;1692327;83;21173;-84
2022/07/02 07:04:15;;;;;;;;;;;;;;;17.07;95.84;98744.27;1693102;84;20202;-89
2022/07/02 07:06:46;;;;;;;;;;;;;;;17.05;95.98;98747.88;1690900;83;20289;-89
2022/07/02 07:09:11;;;;;;;;;;;;;;;17.03;96.22;98748.19;1687046;85;20192;-85
2022/07/02 07:11:37;;;;;;;;;;;;;;;16.96;97.07;98751.87;1684294;84;20165;-84
2022/07/02 07:14:03;;;;;;;;;;;;;;;16.99;96.94;98755.93;1681917;84;21057;-89
2022/07/02 07:16:28;;;;;;;;;;;;;;;17.00;96.93;98754.25;1683969;85;20334;-84
2022/07/02 07:18:57;;;;;;;;;;;;;;;16.97;96.54;98751.32;1697030;84;20288;-89
2022/07/02 07:21:22;;;;;;;;;;;;;;;16.85;97.49;98754.01;1685519;84;20493;-88
2022/07/02 07:23:48;;;;;;;;;;;;;;;16.91;97.46;98760.17;1689403;84;20321;-88
2022/07/02 07:26:13;;;;;;;;;;;;;;;16.93;97.80;98759.34;1689673;85;21973;-88
2022/07/02 07:28:39;;;;;;;;;;;;;;;16.97;97.00;98765.01;1689639;83;20779;-84
2022/07/02 07:31:05;;;;;;;;;;;;;;;17.00;97.15;98769.87;1689119;83;20263;-89
2022/07/02 07:33:30;;;;;;;;;;;;;;;17.10;97.31;98775.17;1689532;83;20668;-88
2022/07/02 07:35:57;;;;;;;;;;;;;;;17.18;96.49;98773.91;1691265;83;20317;-89
2022/07/02 07:38:23;;;;;;;;;;;;;;;17.29;96.28;98776.42;1690726;83;21226;-89
2022/07/02 07:40:48;;;;;;;;;;;;;;;17.26;95.89;98783.86;1671729;84;20200;-84
2022/07/02 07:43:14;;;;;;;;;;;;;;;17.24;96.55;98778.70;1659112;85;20200;-89
2022/07/02 07:45:40;;;;;;;;;;;;;;;17.21;96.53;98787.53;1678724;85;20238;-84
2022/07/02 07:48:06;;;;;;;;;;;;;;;17.12;95.87;98786.06;1689552;84;20299;-84
2022/07/02 07:50:32;;;;;;;;;;;;;;;17.18;95.19;98795.00;1689550;85;21110;-84
2022/07/02 07:52:57;;;;;;;;;;;;;;;17.20;96.14;98789.46;1689380;85;20203;-84
2022/07/02 07:55:23;;;;;;;;;;;;;;;17.09;96.96;98789.42;1689856;83;20263;-89
2022/07/02 07:57:49;;;;;;;;;;;;;;;17.13;96.96;98793.72;1689909;85;20262;-89
2022/07/02 08:00:15;;;;;;;;;;;;;;;17.22;95.97;98796.56;1689923;85;20254;-89
2022/07/02 08:02:41;;;;;;;;;;;;;;;17.25;95.99;98793.20;1696316;83;21150;-84
2022/07/02 08:05:07;;;;;;;;;;;;;;;17.33;95.22;98799.34;1681172;83;20224;-88
2022/07/02 08:07:40;;;;;;;;;;;;;;;17.35;95.41;98795.76;1675571;85;20184;-84
2022/07/02 08:10:08;;;;;;;;;;;;;;;17.45;95.27;98794.98;1708226;84;20162;-84
2022/07/02 08:12:34;;;;;;;;;;;;;;;17.44;95.20;98800.77;1698921;83;20196;-88
2022/07/02 08:15:00;;;;;;;;;;;;;;;17.55;95.10;98795.88;1702805;83;21834;-84
2022/07/02 08:17:26;;;;;;;;;;;;;;;17.56;95.20;98793.39;1695287;82;20187;-84
2022/07/02 08:19:52;;;;;;;;;;;;;;;17.63;95.19;98782.27;1684875;85;20469;-88
2022/07/02 08:22:19;;;;;;;;;;;;;;;17.58;94.95;98785.67;1684652;83;20231;-83
2022/07/02 08:24:45;;;;;;;;;;;;;;;17.66;94.47;98786.31;1678982;84;20135;-89
2022/07/02 08:27:11;;;;;;;;;;;;;;;17.76;94.06;98788.86;1685780;84;21152;-89
2022/07/02 08:29:37;;;;;;;;;;;;;;;17.83;93.83;98794.73;1683044;85;20505;-89
2022/07/02 08:32:04;;;;;;;;;;;;;;;17.85;94.07;98798.53;1689690;85;20225;-83
2022/07/02 08:34:31;;;;;;;;;;;;;;;17.81;93.44;98795.61;1689528;84;20212;-89
2022/07/02 08:36:57;;;;;;;;;;;;;;;17.69;93.53;98801.61;1685559;84;20135;-88
2022/07/02 08:39:23;;;;;;;;;;;;;;;17.54;94.33;98810.14;1690346;84;21145;-84
2022/07/02 08:41:48;;;;;;;;;;;;;;;17.49;94.33;98812.98;1689617;84;20176;-83
2022/07/02 08:44:15;;;;;;;;;;;;;;;17.52;94.06;98811.02;1696078;84;20232;-89
2022/07/02 08:46:41;;;;;;;;;;;;;;;17.42;94.09;98807.90;1688627;84;20169;-89
2022/07/02 08:49:07;;;;;;;;;;;;;;;17.55;93.50;98813.13;1686440;84;20182;-89
2022/07/02 08:51:35;;;;;;;;;;;;;;;17.61;93.66;98816.59;1689689;84;21079;-87
2022/07/02 08:54:01;;;;;;;;;;;;;;;17.65;92.85;98819.77;1696470;83;20493;-84
2022/07/02 08:56:30;;;;;;;;;;;;;;;17.66;92.39;98823.31;1689835;84;20375;-88
2022/07/02 08:58:56;;;;;;;;;;;;;;;17.65;92.19;98820.33;1685345;83;20181;-89
2022/07/02 09:01:21;;;;;;;;;;;;;;;17.64;91.72;98823.62;1688263;83;20166;-83
2022/07/02 09:03:49;;;;;;;;;;;;;;;17.58;91.58;98824.84;1689104;85;21170;-84
2022/07/02 09:06:16;;;;;;;;;;;;;;;17.45;91.91;98827.86;1665387;84;20210;-89
2022/07/02 09:08:42;;;;;;;;;;;;;;;17.43;92.16;98824.62;1689444;84;20452;-84
2022/07/02 09:11:08;;;;;;;;;;;;;;;17.44;91.94;98828.17;1694983;82;20678;-88
2022/07/02 09:13:34;;;;;;;;;;;;;;;17.43;91.84;98838.31;1696611;83;20174;-88
2022/07/02 09:15:59;;;;;;;;;;;;;;;17.52;91.27;98835.67;1688811;84;21094;-88
2022/07/02 09:18:25;;;;;;;;;;;;;;;17.44;91.30;98839.12;1685245;83;20251;-89
2022/07/02 09:20:51;;;;;;;;;;;;;;;17.41;91.77;98832.87;1689636;84;20180;-84
2022/07/02 09:23:20;;;;;;;;;;;;;;;17.52;91.16;98830.20;1689692;84;20782;-84
2022/07/02 09:25:48;;;;;;;;;;;;;;;17.60;91.50;98838.23;1691131;84;20241;-88
2022/07/02 09:28:14;;;;;;;;;;;;;;;17.61;91.40;98833.84;1691411;83;21148;-84
2022/07/02 09:30:40;;;;;;;;;;;;;;;17.60;91.22;98834.13;1691289;85;20170;-83
2022/07/02 09:33:28;;;;;;;;;;;;;;;17.56;91.48;98832.56;1690888;84;20171;-83
2022/07/02 09:35:55;;;;;;;;;;;;;;;17.59;91.95;98829.76;1690638;83;20161;-84
2022/07/02 09:38:21;;;;;;;;;;;;;;;17.66;91.31;98832.91;1690033;84;20482;-90
2022/07/02 09:40:55;;;;;;;;;;;;;;;17.74;90.96;98840.44;1690700;84;21989;-83
2022/07/02 09:43:27;;;;;;;;;;;;;;;17.69;90.51;98845.45;1689964;83;20161;-88
2022/07/02 09:45:55;;;;;;;;;;;;;;;17.56;90.70;98846.27;1670802;84;20560;-88
2022/07/02 09:48:20;;;;;;;;;;;;;;;17.70;90.36;98853.14;1683536;83;20169;-84
2022/07/02 09:50:46;;;;;;;;;;;;;;;17.56;90.36;98843.52;1689812;85;20168;-83
2022/07/02 09:53:12;;;;;;;;;;;;;;;17.57;89.92;98849.25;1689576;83;21167;-88
2022/07/02 09:55:38;;;;;;;;;;;;;;;17.76;89.61;98849.16;1689791;84;20241;-84
2022/07/02 09:58:04;;;;;;;;;;;;;;;17.86;89.29;98846.22;1685487;83;20270;-88
2022/07/02 10:00:31;;;;;;;;;;;;;;;17.93;89.12;98843.05;1676452;85;20198;-84
2022/07/02 10:02:57;;;;;;;;;;;;;;;17.95;88.60;98841.64;1656338;84;20273;-83
2022/07/02 10:05:31;;;;;;;;;;;;;;;17.98;88.77;98849.23;1690365;84;21990;-84
2022/07/02 10:07:58;;;;;;;;;;;;;;;17.89;88.24;98851.08;1688906;84;20195;-83
2022/07/02 10:10:38;;;;;;;;;;;;;;;18.04;87.92;98848.57;1694187;84;20166;-84
2022/07/02 10:12:57;;;;;;;;;;;;;;;18.14;87.64;98846.16;1684575;84;20186;-84
2022/07/02 10:15:23;;;;;;;;;;;;;;;18.12;86.98;98845.66;1689780;84;20162;-83
2022/07/02 10:17:52;;;;;;;;;;;;;;;18.23;86.96;98849.78;1678661;84;21307;-84
2022/07/02 10:20:18;;;;;;;;;;;;;;;18.13;86.52;98854.14;1679269;84;20161;-83
2022/07/02 10:22:44;;;;;;;;;;;;;;;18.10;87.10;98859.66;1689909;83;20295;-89
2022/07/02 10:25:09;;;;;;;;;;;;;;;18.17;87.29;98864.73;1689510;85;20195;-83
2022/07/02 10:27:35;;;;;;;;;;;;;;;18.07;87.32;98861.66;1689842;83;20243;-84
2022/07/02 10:30:01;;;;;;;;;;;;;;;18.08;87.36;98859.16;1690086;84;20975;-88
2022/07/02 10:32:42;;;;;;;;;;;;;;;18.18;87.24;98860.30;1689496;84;20181;-84
2022/07/02 10:35:10;;;;;;;;;;;;;;;18.31;86.43;98860.83;1690625;84;20195;-83
2022/07/02 10:37:39;;;;;;;;;;;;;;;18.25;85.41;98862.62;1689048;83;20160;-89
2022/07/02 10:40:05;;;;;;;;;;;;;;;18.37;85.54;98860.69;1689852;84;20202;-83
2022/07/02 10:42:39;;;;;;;;;;;;;;;18.64;85.64;98855.11;1690464;83;20793;-89
2022/07/02 10:45:14;;;;;;;;;;;;;;;18.69;83.62;98860.49;1690717;84;20586;-83
2022/07/02 10:47:54;;;;;;;;;;;;;;;18.69;83.49;98865.98;1677854;84;20293;-83
2022/07/02 10:50:39;;;;;;;;;;;;;;;18.77;83.45;98864.42;1672474;84;20497;-83
2022/07/02 10:53:10;;;;;;;;;;;;;;;18.57;82.61;98867.89;1689566;84;20177;-88
2022/07/02 10:55:36;;;;;;;;;;;;;;;18.52;83.29;98873.49;1691647;83;21973;-89
2022/07/02 10:58:03;;;;;;;;;;;;;;;18.73;83.67;98867.00;1690405;83;20942;-87
2022/07/02 11:00:36;;;;;;;;;;;;;;;18.75;83.32;98863.93;1686875;85;20170;-83
2022/07/02 11:03:21;;;;;;;;;;;;;;;18.92;83.49;98864.04;1700281;83;20418;-84
2022/07/02 11:05:53;;;;;;;;;;;;;;;18.92;82.12;98872.28;1698158;83;20166;-83
2022/07/02 11:08:34;;;;;;;;;;;;;;;19.00;82.57;98870.15;1677609;85;21163;-88
2022/07/02 11:11:00;;;;;;;;;;;;;;;18.98;82.11;98870.22;1671744;85;20517;-83
2022/07/02 11:13:34;;;;;;;;;;;;;;;18.97;82.40;98869.95;1689040;85;20284;-89
2022/07/02 11:16:00;;;;;;;;;;;;;;;18.90;81.89;98871.79;1686922;84;20167;-83
2022/07/02 11:18:28;;;;;;;;;;;;;;;18.83;82.03;98883.20;1665284;85;20527;-88
2022/07/02 11:20:53;;;;;;;;;;;;;;;18.84;82.55;98873.84;1681059;84;21253;-83
2022/07/02 11:23:19;;;;;;;;;;;;;;;18.60;83.36;98871.38;1688506;83;20255;-88
2022/07/02 11:25:45;;;;;;;;;;;;;;;18.70;83.13;98877.20;1688696;85;20213;-83
2022/07/02 11:28:12;;;;;;;;;;;;;;;18.67;83.51;98876.47;1687930;84;20174;-88
2022/07/02 11:30:38;;;;;;;;;;;;;;;18.66;84.07;98875.41;1688554;84;20474;-84
2022/07/02 11:33:12;;;;;;;;;;;;;;;18.56;83.74;98878.63;1689416;83;21798;-86
2022/07/02 11:35:38;;;;;;;;;;;;;;;18.58;83.59;98881.05;1694822;83;20177;-84
2022/07/02 11:38:03;;;;;;;;;;;;;;;18.63;83.29;98879.57;1698124;83;20269;-89
2022/07/02 11:40:29;;;;;;;;;;;;;;;18.49;83.43;98878.24;1689515;85;20188;-89
2022/07/02 11:42:55;;;;;;;;;;;;;;;18.48;83.13;98882.67;1689641;83;20275;-88
2022/07/02 11:45:21;;;;;;;;;;;;;;;18.41;83.22;98885.03;1689677;84;21021;-88
2022/07/02 11:47:48;;;;;;;;;;;;;;;18.50;83.20;98885.91;1689378;83;20171;-84
2022/07/02 11:50:14;;;;;;;;;;;;;;;18.66;82.96;98885.02;1689227;85;20197;-89
2022/07/02 11:52:41;;;;;;;;;;;;;;;18.75;82.69;98880.41;1689495;85;20451;-84
2022/07/02 11:55:10;;;;;;;;;;;;;;;18.84;81.95;98882.08;1696236;83;20206;-89
2022/07/02 11:57:36;;;;;;;;;;;;;;;19.01;82.34;98877.26;1700049;83;21080;-85
2022/07/02 12:00:02;;;;;;;;;;;;;;;19.12;81.44;98877.80;1689255;84;20188;-89
2022/07/02 12:02:38;;;;;;;;;;;;;;;19.21;81.53;98875.09;1689596;83;20190;-84
2022/07/02 12:05:17;;;;;;;;;;;;;;;19.25;80.54;98876.91;1680934;85;20189;-87
2022/07/02 12:07:43;;;;;;;;;;;;;;;19.07;80.02;98875.20;1679965;84;20174;-84
2022/07/02 12:10:11;;;;;;;;;;;;;;;19.01;80.55;98871.77;1693996;84;21172;-88
2022/07/02 12:12:36;;;;;;;;;;;;;;;18.91;80.03;98874.78;1689600;84;20171;-88
2022/07/02 12:15:05;;;;;;;;;;;;;;;18.99;80.18;98882.83;1689759;85;20181;-83
2022/07/02 12:17:31;;;;;;;;;;;;;;;18.97;80.16;98881.77;1689440;85;20313;-84
2022/07/02 12:19:57;;;;;;;;;;;;;;;19.06;80.27;98885.38;1689771;84;20180;-89
2022/07/02 12:22:24;;;;;;;;;;;;;;;19.14;80.20;98881.88;1689853;83;21093;-89
2022/07/02 12:24:51;;;;;;;;;;;;;;;19.12;79.45;98879.17;1684706;84;20421;-89
2022/07/02 12:27:17;;;;;;;;;;;;;;;18.97;79.55;98880.40;1670075;85;20477;-88
2022/07/02 12:29:56;;;;;;;;;;;;;;;19.08;79.98;98879.56;1686168;85;20560;-84
2022/07/02 12:32:28;;;;;;;;;;;;;;;19.21;79.99;98874.53;1675840;83;20521;-89
2022/07/02 12:34:58;;;;;;;;;;;;;;;19.22;79.46;98876.71;1689834;84;21910;-84
2022/07/02 12:37:34;;;;;;;;;;;;;;;19.11;80.12;98878.36;1703787;83;20127;-88
2022/07/02 12:40:13;;;;;;;;;;;;;;;18.90;80.11;98881.40;1690109;85;20161;-88
2022/07/02 12:42:49;;;;;;;;;;;;;;;18.74;80.75;98879.59;1673855;84;20513;-88
2022/07/02 12:45:31;;;;;;;;;;;;;;;18.57;81.12;98881.62;1673525;85;20484;-84
2022/07/02 12:48:03;;;;;;;;;;;;;;;18.60;81.30;98876.06;1689711;83;21071;-89
2022/07/02 12:50:33;;;;;;;;;;;;;;;18.55;81.80;98875.63;1689878;85;20166;-84
2022/07/02 12:53:03;;;;;;;;;;;;;;;18.59;82.00;98879.36;1689951;83;20181;-83
2022/07/02 12:55:34;;;;;;;;;;;;;;;18.55;82.59;98871.52;1667571;83;20377;-84